Time;durP1;ratioP1;P1;durP2;ratioP2;P2;SDS_P1;SDS_P2;PMS_P1;PMS_P2;Temp;Humidity;BMP_temperature;BMP_pressure;BME280_temperature;BME280_humidity;BME280_pressure;Samples;Min_cycle;Max_cycle;Signal;HPM_P1;HPM_P2
2023/05/11 00:01:49;;;;;;;14.23;7.07;;;;;;;;;;6157474;23;20001;-78
2023/05/11 00:04:15;;;;;;;13.30;7.20;;;;;;;;;;6157132;23;20080;-79
2023/05/11 00:06:40;;;;;;;11.95;6.57;;;;;;;;;;6183514;23;20103;-77
2023/05/11 00:09:08;;;;;;;12.15;6.63;;;;;;;;;;6157384;23;20436;-77
2023/05/11 00:11:33;;;;;;;12.70;6.70;;;;;;;;;;6108706;23;20424;-79
2023/05/11 00:13:59;;;;;;;15.32;7.25;;;;;;;;;;6132786;23;19997;-80
2023/05/11 00:16:24;;;;;;;11.93;6.80;;;;;;;;;;6132802;23;20157;-78
2023/05/11 00:18:50;;;;;;;10.65;6.45;;;;;;;;;;6108650;23;20068;-79
2023/05/11 00:21:15;;;;;;;10.40;6.07;;;;;;;;;;6108347;23;20033;-79
2023/05/11 00:23:40;;;;;;;12.95;7.22;;;;;;;;;;6183501;23;20004;-78
2023/05/11 00:26:06;;;;;;;13.23;6.63;;;;;;;;;;6132411;23;20005;-78
2023/05/11 00:28:31;;;;;;;13.45;6.88;;;;;;;;;;6157107;23;20031;-78
2023/05/11 00:30:57;;;;;;;11.93;6.75;;;;;;;;;;6157449;23;20012;-78
2023/05/11 00:33:22;;;;;;;11.13;6.47;;;;;;;;;;6132707;23;20060;-79
2023/05/11 00:35:48;;;;;;;17.25;7.03;;;;;;;;;;6108684;23;20039;-78
2023/05/11 00:38:14;;;;;;;16.20;6.82;;;;;;;;;;6132572;23;20001;-78
2023/05/11 00:40:39;;;;;;;12.65;7.07;;;;;;;;;;6108294;23;20383;-79
2023/05/11 00:43:05;;;;;;;12.75;6.63;;;;;;;;;;6132668;23;20008;-79
2023/05/11 00:45:31;;;;;;;13.55;6.82;;;;;;;;;;6132382;23;20404;-78
2023/05/11 00:47:57;;;;;;;13.63;7.47;;;;;;;;;;6131031;23;20012;-78
2023/05/11 00:50:22;;;;;;;15.27;7.93;;;;;;;;;;6132954;23;20120;-78
2023/05/11 00:52:48;;;;;;;13.95;7.43;;;;;;;;;;6132486;23;20001;-78
2023/05/11 00:55:13;;;;;;;14.02;7.47;;;;;;;;;;6132217;23;20005;-79
2023/05/11 00:57:39;;;;;;;13.02;7.40;;;;;;;;;;6182886;23;20040;-78
2023/05/11 01:00:06;;;;;;;16.80;7.70;;;;;;;;;;6183819;23;20408;-78
2023/05/11 01:02:31;;;;;;;12.88;7.30;;;;;;;;;;6133078;23;20079;-78
2023/05/11 01:04:57;;;;;;;13.65;7.20;;;;;;;;;;6132712;23;20108;-77
2023/05/11 01:07:30;;;;;;;15.40;7.80;;;;;;;;;;6159349;23;20506;-78
2023/05/11 01:10:26;;;;;;;14.93;7.93;;;;;;;;;;6160877;23;20396;-78
2023/05/11 01:13:01;;;;;;;15.55;7.53;;;;;;;;;;6185526;23;20350;-78
2023/05/11 01:15:35;;;;;;;15.68;7.95;;;;;;;;;;6158957;23;20005;-77
2023/05/11 01:18:27;;;;;;;12.10;6.72;;;;;;;;;;6160749;23;20088;-76
2023/05/11 01:20:55;;;;;;;16.60;7.78;;;;;;;;;;6168388;23;20005;-77
2023/05/11 01:23:24;;;;;;;15.90;8.32;;;;;;;;;;6110144;23;20024;-75
2023/05/11 01:26:03;;;;;;;14.75;7.95;;;;;;;;;;6185216;23;20045;-77
2023/05/11 01:28:47;;;;;;;15.82;8.88;;;;;;;;;;6134263;23;20388;-77
2023/05/11 01:31:12;;;;;;;16.23;8.27;;;;;;;;;;6161303;23;20076;-77
2023/05/11 01:33:40;;;;;;;19.40;8.85;;;;;;;;;;6134035;23;20012;-77
2023/05/11 01:36:08;;;;;;;16.42;9.07;;;;;;;;;;6134990;23;20008;-77
2023/05/11 01:38:34;;;;;;;14.32;8.38;;;;;;;;;;6134322;23;20036;-77
2023/05/11 01:41:00;;;;;;;14.73;8.02;;;;;;;;;;6134328;23;20001;-77
2023/05/11 01:43:25;;;;;;;16.92;8.63;;;;;;;;;;6109732;23;20028;-78
2023/05/11 01:45:51;;;;;;;17.83;8.43;;;;;;;;;;6134138;23;20011;-76
2023/05/11 01:48:20;;;;;;;13.63;6.68;;;;;;;;;;6132548;23;20020;-77
2023/05/11 01:50:45;;;;;;;18.27;9.43;;;;;;;;;;6159153;23;20001;-77
2023/05/11 01:53:11;;;;;;;18.08;9.05;;;;;;;;;;6133655;23;20095;-77
2023/05/11 01:55:36;;;;;;;20.70;9.32;;;;;;;;;;6133929;23;20123;-76
2023/05/11 01:58:02;;;;;;;20.02;9.00;;;;;;;;;;6134217;23;20059;-77
2023/05/11 02:00:28;;;;;;;14.13;8.35;;;;;;;;;;6159083;23;20062;-76
2023/05/11 02:02:53;;;;;;;17.50;9.07;;;;;;;;;;6134184;23;20087;-77
2023/05/11 02:05:21;;;;;;;17.60;8.70;;;;;;;;;;6158322;23;20095;-76
2023/05/11 02:07:48;;;;;;;16.77;8.48;;;;;;;;;;6132894;23;20053;-77
2023/05/11 02:10:14;;;;;;;17.45;8.73;;;;;;;;;;6109892;23;20043;-76
2023/05/11 02:12:39;;;;;;;17.77;9.40;;;;;;;;;;6109766;23;20009;-78
2023/05/11 02:15:06;;;;;;;18.10;9.55;;;;;;;;;;6159090;23;20447;-76
2023/05/11 02:17:31;;;;;;;20.25;9.38;;;;;;;;;;6133483;23;20456;-77
2023/05/11 02:19:57;;;;;;;17.10;8.77;;;;;;;;;;6158525;23;20005;-78
2023/05/11 02:22:22;;;;;;;19.05;9.02;;;;;;;;;;6133927;23;20005;-78
2023/05/11 02:24:48;;;;;;;20.30;10.48;;;;;;;;;;6109446;23;20013;-79
2023/05/11 02:27:13;;;;;;;20.92;9.13;;;;;;;;;;6133503;23;20009;-78
2023/05/11 02:29:38;;;;;;;16.48;7.65;;;;;;;;;;6133656;23;20019;-79
2023/05/11 02:32:08;;;;;;;18.85;8.93;;;;;;;;;;6158116;23;20019;-78
2023/05/11 02:34:41;;;;;;;18.20;9.23;;;;;;;;;;6133588;23;20024;-77
2023/05/11 02:37:09;;;;;;;18.08;9.25;;;;;;;;;;6133775;23;19993;-77
2023/05/11 02:39:35;;;;;;;22.77;9.65;;;;;;;;;;6133949;23;20020;-78
2023/05/11 02:42:08;;;;;;;18.77;10.50;;;;;;;;;;6158184;23;20372;-78
2023/05/11 02:44:34;;;;;;;20.17;9.45;;;;;;;;;;6133933;23;20421;-78
2023/05/11 02:47:00;;;;;;;17.70;9.68;;;;;;;;;;6133520;23;20005;-79
2023/05/11 02:49:25;;;;;;;20.23;9.65;;;;;;;;;;6109312;23;20035;-77
2023/05/11 02:51:51;;;;;;;19.15;10.00;;;;;;;;;;6133261;23;20005;-78
2023/05/11 02:54:17;;;;;;;20.20;9.70;;;;;;;;;;6158445;23;20347;-78
2023/05/11 02:56:42;;;;;;;22.58;11.25;;;;;;;;;;6157774;23;20036;-77
2023/05/11 02:59:08;;;;;;;32.95;10.55;;;;;;;;;;6133206;23;20008;-78
2023/05/11 03:01:33;;;;;;;26.50;11.00;;;;;;;;;;6133442;23;20197;-78
2023/05/11 03:03:58;;;;;;;21.65;9.85;;;;;;;;;;6133078;23;20001;-78
2023/05/11 03:06:24;;;;;;;21.00;10.52;;;;;;;;;;6133467;23;20009;-78
2023/05/11 03:08:51;;;;;;;22.75;10.63;;;;;;;;;;6133861;23;20032;-78
2023/05/11 03:11:16;;;;;;;24.45;10.77;;;;;;;;;;6133240;23;20009;-78
2023/05/11 03:13:43;;;;;;;19.77;9.95;;;;;;;;;;6133221;23;20048;-77
2023/05/11 03:16:08;;;;;;;20.08;9.98;;;;;;;;;;6158136;23;20515;-78
2023/05/11 03:18:34;;;;;;;21.05;9.68;;;;;;;;;;6157684;23;20005;-78
2023/05/11 03:20:59;;;;;;;20.33;10.05;;;;;;;;;;6108906;23;20009;-78
2023/05/11 03:23:25;;;;;;;22.33;10.57;;;;;;;;;;6133112;23;20055;-79
2023/05/11 03:25:51;;;;;;;22.08;9.07;;;;;;;;;;6132948;23;20083;-78
2023/05/11 03:28:16;;;;;;;20.45;9.90;;;;;;;;;;6157041;23;20027;-78
2023/05/11 03:30:42;;;;;;;19.88;9.77;;;;;;;;;;6108346;23;20033;-78
2023/05/11 03:33:07;;;;;;;22.40;9.82;;;;;;;;;;6133026;23;20005;-78
2023/05/11 03:35:33;;;;;;;21.23;10.43;;;;;;;;;;6133059;23;20443;-78
2023/05/11 03:37:59;;;;;;;22.60;11.05;;;;;;;;;;6106982;23;20005;-78
2023/05/11 03:40:26;;;;;;;19.30;10.18;;;;;;;;;;6132882;23;19997;-78
2023/05/11 03:42:52;;;;;;;18.80;9.07;;;;;;;;;;6109239;23;20100;-78
2023/05/11 03:45:17;;;;;;;28.85;10.48;;;;;;;;;;6132657;23;20009;-78
2023/05/11 03:47:43;;;;;;;21.42;10.15;;;;;;;;;;6132691;23;20068;-78
2023/05/11 03:50:09;;;;;;;18.23;9.18;;;;;;;;;;6108505;23;20001;-78
2023/05/11 03:52:35;;;;;;;20.95;9.57;;;;;;;;;;6157452;23;20012;-78
2023/05/11 03:55:01;;;;;;;27.17;10.35;;;;;;;;;;6132149;23;20078;-77
2023/05/11 03:57:26;;;;;;;23.25;9.95;;;;;;;;;;6157216;23;20040;-78
2023/05/11 03:59:52;;;;;;;16.52;8.82;;;;;;;;;;6157386;23;20001;-78
2023/05/11 04:02:17;;;;;;;23.38;9.73;;;;;;;;;;6157234;23;20015;-78
2023/05/11 04:04:42;;;;;;;28.33;10.45;;;;;;;;;;6155580;23;20016;-78
2023/05/11 04:07:08;;;;;;;24.20;10.45;;;;;;;;;;6132565;23;20001;-77
2023/05/11 04:09:33;;;;;;;19.35;9.18;;;;;;;;;;6157133;23;19997;-77
2023/05/11 04:11:59;;;;;;;24.48;8.98;;;;;;;;;;6183565;23;20008;-78
2023/05/11 04:14:24;;;;;;;21.17;9.20;;;;;;;;;;6183510;23;20317;-79
2023/05/11 04:16:50;;;;;;;20.05;8.85;;;;;;;;;;6156680;23;20016;-77
2023/05/11 04:19:15;;;;;;;21.40;9.32;;;;;;;;;;6132599;23;20320;-78
2023/05/11 04:21:41;;;;;;;19.60;8.82;;;;;;;;;;6157145;23;20448;-77
2023/05/11 04:24:06;;;;;;;18.42;9.07;;;;;;;;;;6132573;23;20001;-78
2023/05/11 04:26:32;;;;;;;24.17;8.50;;;;;;;;;;6157139;23;20001;-80
2023/05/11 04:28:57;;;;;;;22.13;9.10;;;;;;;;;;6108071;23;20001;-79
2023/05/11 04:31:23;;;;;;;19.80;8.43;;;;;;;;;;6132172;23;20402;-76
2023/05/11 04:33:48;;;;;;;19.30;8.65;;;;;;;;;;6132413;23;20004;-76
2023/05/11 04:36:14;;;;;;;16.65;8.43;;;;;;;;;;6132700;23;20391;-78
2023/05/11 04:38:39;;;;;;;21.08;8.45;;;;;;;;;;6184822;23;20052;-78
2023/05/11 04:41:05;;;;;;;15.90;8.02;;;;;;;;;;6142913;23;20001;-83
2023/05/11 04:43:30;;;;;;;23.02;8.32;;;;;;;;;;6142613;23;20455;-78
2023/05/11 04:45:56;;;;;;;19.17;7.78;;;;;;;;;;6156919;23;20009;-78
2023/05/11 04:48:21;;;;;;;21.77;7.38;;;;;;;;;;6157020;23;20032;-79
2023/05/11 04:50:47;;;;;;;16.70;8.50;;;;;;;;;;6156558;23;20048;-79
2023/05/11 04:53:14;;;;;;;19.52;7.88;;;;;;;;;;6132169;23;20001;-76
2023/05/11 04:55:39;;;;;;;19.67;7.47;;;;;;;;;;6159877;23;20039;-78
2023/05/11 04:58:05;;;;;;;17.25;7.63;;;;;;;;;;6160042;23;20005;-77
2023/05/11 05:00:31;;;;;;;21.77;7.32;;;;;;;;;;6160321;23;20028;-77
2023/05/11 05:02:58;;;;;;;17.75;8.35;;;;;;;;;;6182355;23;20075;-76
2023/05/11 05:05:26;;;;;;;15.73;7.47;;;;;;;;;;6184165;23;20005;-75
2023/05/11 05:07:52;;;;;;;20.73;8.00;;;;;;;;;;6159172;23;20033;-78
2023/05/11 05:10:17;;;;;;;18.67;7.97;;;;;;;;;;6111720;23;20009;-77
2023/05/11 05:12:43;;;;;;;20.95;8.35;;;;;;;;;;6184542;23;20000;-78
2023/05/11 05:15:10;;;;;;;19.95;7.70;;;;;;;;;;6157614;23;20104;-77
2023/05/11 05:17:36;;;;;;;26.00;7.80;;;;;;;;;;6157872;23;20032;-76
2023/05/11 05:20:03;;;;;;;15.27;7.40;;;;;;;;;;6157738;23;20009;-77
2023/05/11 05:22:28;;;;;;;14.13;6.88;;;;;;;;;;6184127;23;19997;-77
2023/05/11 05:24:54;;;;;;;13.27;6.85;;;;;;;;;;6185923;23;20036;-78
2023/05/11 05:27:19;;;;;;;23.98;7.03;;;;;;;;;;6133700;23;20422;-77
2023/05/11 05:29:45;;;;;;;19.83;7.15;;;;;;;;;;6157861;23;20217;-78
2023/05/11 05:32:10;;;;;;;16.92;7.57;;;;;;;;;;6182766;23;20077;-78
2023/05/11 05:34:38;;;;;;;19.27;7.18;;;;;;;;;;6181198;23;20318;-73
2023/05/11 05:37:04;;;;;;;16.27;7.57;;;;;;;;;;6182577;23;20036;-78
2023/05/11 05:39:29;;;;;;;14.25;7.28;;;;;;;;;;6129071;23;20005;-78
2023/05/11 05:41:56;;;;;;;15.75;7.25;;;;;;;;;;6159439;23;20012;-78
2023/05/11 05:44:21;;;;;;;18.95;7.32;;;;;;;;;;6134888;23;20132;-77
2023/05/11 05:46:47;;;;;;;20.95;7.75;;;;;;;;;;6158956;23;20009;-77
2023/05/11 05:49:13;;;;;;;17.80;7.60;;;;;;;;;;6182976;23;20069;-76
2023/05/11 05:51:39;;;;;;;13.88;6.65;;;;;;;;;;6156627;23;20013;-76
2023/05/11 05:54:05;;;;;;;16.35;7.68;;;;;;;;;;6161110;23;20005;-77
2023/05/11 05:56:31;;;;;;;17.83;6.78;;;;;;;;;;6163196;23;20057;-77
2023/05/11 05:58:56;;;;;;;22.05;7.35;;;;;;;;;;6162919;23;20020;-79
2023/05/11 06:01:23;;;;;;;17.10;6.93;;;;;;;;;;6165464;23;20468;-78
2023/05/11 06:03:50;;;;;;;20.10;6.85;;;;;;;;;;6115751;23;20092;-76
2023/05/11 06:06:19;;;;;;;22.27;8.35;;;;;;;;;;6139547;23;20040;-77
2023/05/11 06:08:45;;;;;;;15.98;8.18;;;;;;;;;;6189013;23;20437;-77
2023/05/11 06:11:11;;;;;;;24.35;8.38;;;;;;;;;;6136982;23;20001;-76
2023/05/11 06:13:55;;;;;;;17.50;7.28;;;;;;;;;;6162772;23;20079;-78
2023/05/11 06:16:20;;;;;;;17.00;7.70;;;;;;;;;;6138062;23;20039;-77
2023/05/11 06:18:46;;;;;;;26.42;7.65;;;;;;;;;;6163877;23;20017;-78
2023/05/11 06:21:12;;;;;;;13.85;7.15;;;;;;;;;;6194586;23;20000;-77
2023/05/11 06:23:38;;;;;;;19.60;7.85;;;;;;;;;;6163372;23;20008;-78
2023/05/11 06:26:03;;;;;;;16.60;7.28;;;;;;;;;;6141410;23;20424;-79
2023/05/11 06:28:30;;;;;;;18.45;7.50;;;;;;;;;;6118267;23;20032;-77
2023/05/11 06:30:59;;;;;;;19.10;7.13;;;;;;;;;;6141197;23;20092;-79
2023/05/11 06:33:25;;;;;;;21.45;8.13;;;;;;;;;;6143969;23;20088;-76
2023/05/11 06:35:50;;;;;;;19.83;8.27;;;;;;;;;;6188775;23;20487;-79
2023/05/11 06:38:15;;;;;;;17.98;6.90;;;;;;;;;;6192544;23;20063;-78
2023/05/11 06:40:41;;;;;;;17.80;7.45;;;;;;;;;;6162582;23;20005;-79
2023/05/11 06:43:07;;;;;;;17.38;8.35;;;;;;;;;;6162072;23;20015;-76
2023/05/11 06:45:32;;;;;;;17.20;7.85;;;;;;;;;;6142197;23;20028;-76
2023/05/11 06:48:01;;;;;;;16.60;7.00;;;;;;;;;;6166872;23;20132;-79
2023/05/11 06:50:26;;;;;;;22.05;7.70;;;;;;;;;;6190725;23;20012;-76
2023/05/11 06:52:53;;;;;;;13.80;6.45;;;;;;;;;;6187984;23;20083;-78
2023/05/11 06:55:20;;;;;;;18.00;8.23;;;;;;;;;;6149158;23;20005;-77
2023/05/11 06:57:46;;;;;;;17.23;7.28;;;;;;;;;;6156909;23;20013;-75
2023/05/11 07:00:13;;;;;;;14.43;6.82;;;;;;;;;;6152536;23;20005;-75
2023/05/11 07:02:39;;;;;;;15.48;6.55;;;;;;;;;;6153874;23;20005;-73
2023/05/11 07:05:05;;;;;;;20.02;7.50;;;;;;;;;;6182632;23;20047;-76
2023/05/11 07:07:32;;;;;;;15.57;6.45;;;;;;;;;;6133804;23;20005;-75
2023/05/11 07:09:57;;;;;;;19.00;7.38;;;;;;;;;;6134424;23;20129;-77
2023/05/11 07:12:23;;;;;;;18.38;6.93;;;;;;;;;;6133623;23;20063;-77
2023/05/11 07:14:49;;;;;;;15.82;7.22;;;;;;;;;;6156716;23;20039;-76
2023/05/11 07:17:14;;;;;;;12.25;6.15;;;;;;;;;;6106605;23;20365;-76
2023/05/11 07:19:40;;;;;;;13.50;6.05;;;;;;;;;;6131546;23;20442;-78
2023/05/11 07:22:09;;;;;;;22.17;7.07;;;;;;;;;;6162161;23;20060;-78
2023/05/11 07:24:35;;;;;;;13.00;6.15;;;;;;;;;;6138973;23;20024;-79
2023/05/11 07:27:00;;;;;;;18.02;7.28;;;;;;;;;;6188371;23;20017;-77
2023/05/11 07:29:26;;;;;;;15.73;7.47;;;;;;;;;;6191222;23;19997;-79
2023/05/11 07:31:52;;;;;;;16.83;7.55;;;;;;;;;;6190285;23;20005;-78
2023/05/11 07:34:17;;;;;;;16.05;7.25;;;;;;;;;;6160675;23;20006;-76
2023/05/11 07:36:45;;;;;;;17.63;7.53;;;;;;;;;;6159596;23;20008;-78
2023/05/11 07:39:10;;;;;;;13.32;6.38;;;;;;;;;;6159497;23;20061;-77
2023/05/11 07:41:36;;;;;;;15.77;7.50;;;;;;;;;;6186093;23;20005;-79
2023/05/11 07:44:01;;;;;;;13.98;6.88;;;;;;;;;;6184077;23;20001;-78
2023/05/11 07:46:27;;;;;;;14.10;6.25;;;;;;;;;;6156796;23;20009;-77
2023/05/11 07:48:52;;;;;;;13.98;7.18;;;;;;;;;;6157851;23;20080;-78
2023/05/11 07:51:19;;;;;;;20.88;6.20;;;;;;;;;;6135835;23;20057;-78
2023/05/11 07:53:44;;;;;;;11.68;6.05;;;;;;;;;;6161936;23;20000;-77
2023/05/11 07:56:10;;;;;;;13.57;6.25;;;;;;;;;;6160903;23;20012;-79
2023/05/11 07:58:35;;;;;;;12.80;6.32;;;;;;;;;;6133438;23;20001;-76
2023/05/11 08:01:01;;;;;;;12.90;6.68;;;;;;;;;;6186475;23;20052;-77
2023/05/11 08:03:26;;;;;;;13.95;6.20;;;;;;;;;;6137927;23;20001;-78
2023/05/11 08:05:52;;;;;;;17.38;6.53;;;;;;;;;;6162389;23;20099;-78
2023/05/11 08:08:18;;;;;;;14.63;5.93;;;;;;;;;;6160452;23;20005;-79
2023/05/11 08:10:43;;;;;;;11.45;5.60;;;;;;;;;;6186816;23;20473;-79
2023/05/11 08:13:09;;;;;;;12.80;6.07;;;;;;;;;;6136673;23;20009;-78
2023/05/11 08:15:35;;;;;;;16.95;5.80;;;;;;;;;;6187000;23;20020;-78
2023/05/11 08:18:01;;;;;;;15.50;7.38;;;;;;;;;;6138696;23;20016;-79
2023/05/11 08:20:27;;;;;;;11.93;5.78;;;;;;;;;;6166309;23;20001;-76
2023/05/11 08:22:53;;;;;;;15.40;6.22;;;;;;;;;;6113920;23;20009;-78
2023/05/11 08:25:18;;;;;;;17.00;6.88;;;;;;;;;;6136396;23;20088;-79
2023/05/11 08:27:43;;;;;;;19.92;7.05;;;;;;;;;;6138666;23;20005;-77
2023/05/11 08:30:09;;;;;;;10.90;5.85;;;;;;;;;;6163960;23;20432;-79
2023/05/11 08:32:35;;;;;;;12.07;5.20;;;;;;;;;;6161944;23;20356;-78
2023/05/11 08:35:02;;;;;;;13.02;6.35;;;;;;;;;;6140114;23;20009;-78
2023/05/11 08:37:29;;;;;;;12.93;5.63;;;;;;;;;;6138056;23;20001;-78
2023/05/11 08:39:54;;;;;;;13.65;5.75;;;;;;;;;;6142281;23;20032;-78
2023/05/11 08:42:25;;;;;;;10.27;5.97;;;;;;;;;;6166102;23;20001;-77
2023/05/11 08:44:52;;;;;;;10.68;5.53;;;;;;;;;;6167327;23;20005;-80
2023/05/11 08:47:17;;;;;;;12.52;6.10;;;;;;;;;;6192326;23;20005;-78
2023/05/11 08:49:44;;;;;;;11.32;5.63;;;;;;;;;;6193731;23;20006;-79
2023/05/11 08:52:13;;;;;;;14.00;5.40;;;;;;;;;;6116738;23;20008;-78
2023/05/11 08:54:40;;;;;;;12.40;6.22;;;;;;;;;;6192323;23;20013;-78
2023/05/11 08:57:06;;;;;;;8.63;5.18;;;;;;;;;;6141969;23;20001;-78
2023/05/11 08:59:33;;;;;;;15.10;5.65;;;;;;;;;;6169100;23;20028;-79
2023/05/11 09:01:58;;;;;;;10.65;5.43;;;;;;;;;;6139956;23;20001;-80
2023/05/11 09:04:29;;;;;;;8.75;5.00;;;;;;;;;;6190083;23;20001;-80
2023/05/11 09:06:55;;;;;;;12.65;5.25;;;;;;;;;;6137650;23;20096;-80
2023/05/11 09:09:21;;;;;;;10.70;5.28;;;;;;;;;;6137700;23;20001;-78
2023/05/11 09:11:46;;;;;;;12.18;5.00;;;;;;;;;;6163484;23;20016;-80
2023/05/11 09:14:12;;;;;;;11.18;4.72;;;;;;;;;;6112252;23;20382;-79
2023/05/11 09:16:37;;;;;;;14.18;5.07;;;;;;;;;;6187956;23;20005;-79
2023/05/11 09:19:04;;;;;;;9.32;5.18;;;;;;;;;;6188027;23;20011;-79
2023/05/11 09:21:30;;;;;;;10.80;5.07;;;;;;;;;;6115284;23;20005;-79
2023/05/11 09:24:00;;;;;;;13.77;5.75;;;;;;;;;;6139840;23;20035;-79
2023/05/11 09:26:28;;;;;;;8.32;4.25;;;;;;;;;;6138297;23;20009;-78
2023/05/11 09:28:59;;;;;;;13.27;4.93;;;;;;;;;;6162777;23;20065;-77
2023/05/11 09:31:41;;;;;;;11.85;4.82;;;;;;;;;;6192590;23;20020;-75
2023/05/11 09:34:17;;;;;;;8.25;4.80;;;;;;;;;;6166493;23;20324;-77
2023/05/11 09:36:45;;;;;;;9.32;5.00;;;;;;;;;;6197820;23;20005;-77
2023/05/11 09:39:12;;;;;;;7.93;4.70;;;;;;;;;;6146674;23;19997;-78
2023/05/11 09:41:37;;;;;;;10.23;4.78;;;;;;;;;;6193087;23;20008;-80
2023/05/11 09:44:12;;;;;;;8.63;4.82;;;;;;;;;;6143039;23;20518;-78
2023/05/11 09:46:42;;;;;;;8.98;4.72;;;;;;;;;;6163737;23;20005;-78
2023/05/11 09:49:11;;;;;;;10.55;5.15;;;;;;;;;;6166429;23;20367;-78
2023/05/11 09:51:39;;;;;;;8.68;5.13;;;;;;;;;;6143544;23;20017;-78
2023/05/11 09:54:20;;;;;;;10.55;5.22;;;;;;;;;;6168761;23;20009;-78
2023/05/11 09:56:51;;;;;;;8.60;4.40;;;;;;;;;;6143850;23;20005;-77
2023/05/11 09:59:35;;;;;;;7.07;4.40;;;;;;;;;;6191271;23;20044;-77
2023/05/11 10:02:18;;;;;;;10.52;4.13;;;;;;;;;;6167033;23;20393;-77
2023/05/11 10:04:44;;;;;;;9.43;4.65;;;;;;;;;;6187589;23;20016;-77
2023/05/11 10:07:09;;;;;;;7.95;4.75;;;;;;;;;;6162473;23;20336;-77
2023/05/11 10:09:37;;;;;;;8.77;4.55;;;;;;;;;;6137901;23;20019;-78
2023/05/11 10:12:02;;;;;;;9.05;4.55;;;;;;;;;;6188320;23;20441;-78
2023/05/11 10:14:28;;;;;;;7.43;4.18;;;;;;;;;;6133572;23;20001;-75
2023/05/11 10:16:59;;;;;;;6.93;4.45;;;;;;;;;;6159741;23;20302;-76
2023/05/11 10:19:25;;;;;;;10.85;4.63;;;;;;;;;;6141131;23;20001;-78
2023/05/11 10:21:51;;;;;;;12.95;4.30;;;;;;;;;;6117624;23;20033;-77
2023/05/11 10:24:16;;;;;;;7.13;4.13;;;;;;;;;;6142334;23;20012;-78
2023/05/11 10:26:44;;;;;;;8.50;4.22;;;;;;;;;;6165440;23;20005;-77
2023/05/11 10:29:10;;;;;;;6.93;3.78;;;;;;;;;;6189800;23;20008;-77
2023/05/11 10:31:38;;;;;;;5.53;3.50;;;;;;;;;;6142605;23;20005;-77
2023/05/11 10:34:04;;;;;;;7.85;3.85;;;;;;;;;;6164643;23;20079;-79
2023/05/11 10:36:35;;;;;;;11.50;3.83;;;;;;;;;;6189160;23;20471;-77
2023/05/11 10:39:01;;;;;;;16.92;4.00;;;;;;;;;;6161290;23;20075;-79
2023/05/11 10:41:51;;;;;;;4.95;3.55;;;;;;;;;;6184869;23;20009;-76
2023/05/11 10:44:35;;;;;;;;;;;;;;;;;;6160546;23;20012;-78
2023/05/11 10:47:18;;;;;;;13.93;6.28;;;;;;;;;;6186190;23;19913;-78
2023/05/11 10:50:18;;;;;;;13.50;4.22;;;;;;;;;;6161797;23;20015;-78
2023/05/11 10:52:55;;;;;;;7.63;4.15;;;;;;;;;;6185308;23;19997;-76
2023/05/11 10:55:47;;;;;;;10.98;4.88;;;;;;;;;;6187863;23;20008;-78
2023/05/11 10:58:39;;;;;;;6.10;3.95;;;;;;;;;;6185631;23;20005;-76
2023/05/11 11:01:30;;;;;;;6.95;4.05;;;;;;;;;;6157613;23;20420;-78
2023/05/11 11:03:57;;;;;;;8.02;3.85;;;;;;;;;;6134370;23;20008;-76
2023/05/11 11:06:23;;;;;;;9.65;3.70;;;;;;;;;;6108827;23;20013;-78
2023/05/11 11:08:59;;;;;;;9.20;3.75;;;;;;;;;;6133684;23;20008;-78
2023/05/11 11:11:33;;;;;;;4.28;3.00;;;;;;;;;;6160441;23;20009;-78
2023/05/11 11:14:01;;;;;;;7.22;3.38;;;;;;;;;;6190409;23;20028;-78
2023/05/11 11:16:33;;;;;;;5.63;2.92;;;;;;;;;;6189153;23;20059;-78
2023/05/11 11:19:38;;;;;;;6.45;3.65;;;;;;;;;;6137534;23;20001;-78
2023/05/11 11:22:05;;;;;;;17.35;3.08;;;;;;;;;;6190189;23;20005;-78
2023/05/11 11:24:37;;;;;;;5.25;3.47;;;;;;;;;;6158343;23;20072;-77
2023/05/11 11:27:06;;;;;;;7.20;2.95;;;;;;;;;;6159215;23;20017;-77
2023/05/11 11:29:33;;;;;;;6.68;3.10;;;;;;;;;;6161382;23;20001;-78
2023/05/11 11:32:23;;;;;;;6.28;3.10;;;;;;;;;;6138365;23;20369;-76
2023/05/11 11:34:49;;;;;;;7.72;2.72;;;;;;;;;;6162885;23;20005;-77
2023/05/11 11:37:15;;;;;;;5.88;3.05;;;;;;;;;;6139437;23;20013;-79
2023/05/11 11:39:40;;;;;;;4.15;3.20;;;;;;;;;;6136860;23;20001;-79
2023/05/11 11:42:14;;;;;;;4.25;2.95;;;;;;;;;;6188229;23;20009;-77
2023/05/11 11:44:40;;;;;;;4.10;2.95;;;;;;;;;;6160813;23;20009;-77
2023/05/11 11:47:18;;;;;;;3.78;2.67;;;;;;;;;;6162842;23;20012;-78
2023/05/11 11:49:49;;;;;;;5.45;2.78;;;;;;;;;;6162011;23;19997;-77
2023/05/11 11:52:27;;;;;;;4.05;3.00;;;;;;;;;;6160554;23;20067;-78
2023/05/11 11:54:58;;;;;;;3.10;2.47;;;;;;;;;;6162292;23;20055;-78
2023/05/11 11:57:32;;;;;;;4.35;2.92;;;;;;;;;;6186379;23;20068;-77
2023/05/11 12:00:06;;;;;;;6.70;2.97;;;;;;;;;;6160208;23;20007;-77
2023/05/11 12:02:32;;;;;;;4.45;2.60;;;;;;;;;;6135554;23;20009;-77
2023/05/11 12:05:00;;;;;;;6.35;3.13;;;;;;;;;;6160457;23;20052;-78
2023/05/11 12:07:25;;;;;;;5.18;2.75;;;;;;;;;;6161377;23;20001;-77
2023/05/11 12:09:53;;;;;;;10.00;2.80;;;;;;;;;;6137881;23;19997;-77
2023/05/11 12:12:19;;;;;;;4.72;2.60;;;;;;;;;;6139200;23;20009;-76
2023/05/11 12:14:47;;;;;;;4.97;2.40;;;;;;;;;;6191227;23;20008;-77
2023/05/11 12:17:15;;;;;;;7.47;2.53;;;;;;;;;;6139543;23;19997;-76
2023/05/11 12:19:44;;;;;;;5.35;2.70;;;;;;;;;;6116443;23;20015;-79
2023/05/11 12:22:10;;;;;;;13.43;6.72;;;;;;;;;;6192280;23;20020;-77
2023/05/11 12:24:38;;;;;;;3.58;2.22;;;;;;;;;;6140528;23;20017;-78
2023/05/11 12:27:03;;;;;;;3.60;2.53;;;;;;;;;;6142001;23;20008;-78
2023/05/11 12:29:29;;;;;;;5.43;2.80;;;;;;;;;;6141065;23;20084;-78
2023/05/11 12:31:55;;;;;;;4.05;2.33;;;;;;;;;;6141442;23;20020;-79
2023/05/11 12:34:23;;;;;;;3.33;2.63;;;;;;;;;;6143010;23;20071;-78
2023/05/11 12:36:49;;;;;;;3.78;2.17;;;;;;;;;;6164979;23;20009;-78
2023/05/11 12:39:23;;;;;;;4.28;2.47;;;;;;;;;;6164416;23;20005;-79
2023/05/11 12:41:50;;;;;;;6.45;2.63;;;;;;;;;;6142112;23;20074;-79
2023/05/11 12:44:16;;;;;;;3.80;2.17;;;;;;;;;;6191872;23;20005;-79
2023/05/11 12:46:42;;;;;;;3.28;2.20;;;;;;;;;;6140663;23;20405;-79
2023/05/11 12:49:08;;;;;;;4.85;2.55;;;;;;;;;;6166503;23;20428;-82
2023/05/11 12:52:11;;;;;;;4.10;2.72;;;;;;;;;;6117386;23;20009;-80
2023/05/11 12:54:49;;;;;;;7.18;2.83;;;;;;;;;;6044424;23;20015;-78
2023/05/11 12:57:27;;;;;;;3.08;2.42;;;;;;;;;;6171150;23;20012;-78
2023/05/11 13:00:12;;;;;;;4.60;2.55;;;;;;;;;;6181914;23;20031;-80
2023/05/11 13:02:51;;;;;;;2.88;2.30;;;;;;;;;;6135186;23;20012;-79
2023/05/11 13:05:20;;;;;;;3.75;2.60;;;;;;;;;;6159968;23;20392;-80
2023/05/11 13:07:47;;;;;;;6.05;2.90;;;;;;;;;;6139053;23;20012;-79
2023/05/11 13:10:13;;;;;;;9.63;5.72;;;;;;;;;;6140594;23;20032;-78
2023/05/11 13:12:48;;;;;;;17.45;9.02;;;;;;;;;;6195238;23;20055;-81
2023/05/11 13:15:14;;;;;;;17.67;6.47;;;;;;;;;;6189292;23;20028;-80
2023/05/11 13:17:42;;;;;;;25.15;11.40;;;;;;;;;;6137097;23;20004;-83
2023/05/11 13:20:18;;;;;;;10.25;3.78;;;;;;;;;;6187797;23;20041;-82
2023/05/11 13:22:44;;;;;;;16.30;6.38;;;;;;;;;;6184939;23;20001;-81
2023/05/11 13:25:09;;;;;;;15.23;7.30;;;;;;;;;;6151831;23;20102;-82
2023/05/11 13:27:36;;;;;;;18.67;8.63;;;;;;;;;;6131172;23;20024;-80
2023/05/11 13:30:03;;;;;;;13.10;6.97;;;;;;;;;;6137160;23;20039;-80
2023/05/11 13:32:29;;;;;;;7.90;4.25;;;;;;;;;;6185268;23;20001;-82
2023/05/11 13:34:54;;;;;;;8.45;4.90;;;;;;;;;;6157817;23;20076;-83
2023/05/11 13:37:20;;;;;;;7.65;3.60;;;;;;;;;;6158591;23;20321;-87
2023/05/11 13:39:48;;;;;;;5.18;2.70;;;;;;;;;;6134418;23;20084;-85
2023/05/11 13:42:14;;;;;;;15.25;4.18;;;;;;;;;;6158829;23;20001;-87
2023/05/11 13:44:40;;;;;;;4.63;2.55;;;;;;;;;;6110345;23;20367;-87
2023/05/11 13:47:05;;;;;;;6.43;2.60;;;;;;;;;;6159450;23;20035;-88
2023/05/11 13:49:31;;;;;;;5.05;2.58;;;;;;;;;;6159057;23;20129;-82
2023/05/11 13:51:56;;;;;;;3.53;2.35;;;;;;;;;;6110026;23;20005;-83
2023/05/11 13:54:22;;;;;;;7.47;3.20;;;;;;;;;;6134072;23;20452;-87
2023/05/11 13:56:47;;;;;;;14.30;2.75;;;;;;;;;;6160378;23;20063;-87
2023/05/11 13:59:12;;;;;;;4.97;2.75;;;;;;;;;;6134545;23;20074;-86
2023/05/11 14:01:38;;;;;;;4.97;2.58;;;;;;;;;;6158712;23;20497;-85
2023/05/11 14:04:04;;;;;;;7.95;3.00;;;;;;;;;;6134220;23;20015;-86
2023/05/11 14:06:32;;;;;;;4.57;2.47;;;;;;;;;;6134320;23;20087;-85
2023/05/11 14:08:58;;;;;;;3.70;2.15;;;;;;;;;;6184771;23;20005;-86
2023/05/11 14:11:23;;;;;;;3.03;2.03;;;;;;;;;;6133614;23;20045;-86
2023/05/11 14:13:49;;;;;;;9.60;2.58;;;;;;;;;;6157811;23;20005;-86
2023/05/11 14:16:15;;;;;;;4.90;2.60;;;;;;;;;;6159675;23;20029;-85
2023/05/11 14:18:41;;;;;;;6.78;2.47;;;;;;;;;;6185283;23;20063;-84
2023/05/11 14:21:06;;;;;;;4.47;2.65;;;;;;;;;;6133835;23;20395;-86
2023/05/11 14:23:32;;;;;;;3.97;2.40;;;;;;;;;;6133928;23;20005;-85
2023/05/11 14:25:57;;;;;;;4.75;2.30;;;;;;;;;;6157810;23;20008;-87
2023/05/11 14:28:22;;;;;;;3.08;2.17;;;;;;;;;;6158814;23;20013;-86
2023/05/11 14:30:48;;;;;;;2.85;2.10;;;;;;;;;;6134119;23;20005;-86
2023/05/11 14:33:13;;;;;;;3.58;1.90;;;;;;;;;;6158595;23;20026;-86
2023/05/11 14:35:39;;;;;;;2.30;1.90;;;;;;;;;;6133698;23;20052;-85
2023/05/11 14:38:04;;;;;;;4.20;2.33;;;;;;;;;;6156874;23;20082;-86